Oakton, Virginia
Current Conditions -  °F | °C
As of 12:52 PM on Thursday 23 Oct 2014 (Local Time) from KIAD Reporting Station
Scattered Clouds Scattered Clouds  
Wind Chill: 62°   Ceiling: Unl
Heat Index: 62°   Visibility: 10mi
Dew Point: 44°   Wind: 23mph
Humidity: 52%   Direction: 330°NNW
Pressure: 29.89"   Gusts: 35mph
Location:  38.88°N, 77.3°W
Report Text: KIAD 231652Z 33020G30KT 10SM SCT040 17/07 A2989 RMK AO2 PK WND 32031/1613 SLP120 T01670067
Loading
Personal Weather Stations






























Interactive Weather Map
Tropical Storm Tracking
New forecast layout! Learn more

10-Day Weather Forecast

Advertisements
Track Severe Weather on mobile